Time;durP1;ratioP1;P1;durP2;ratioP2;P2;SDS_P1;SDS_P2;PMS_P1;PMS_P2;Temp;Humidity;BMP_temperature;BMP_pressure;BME280_temperature;BME280_humidity;BME280_pressure;Samples;Min_cycle;Max_cycle;Signal;HPM_P1;HPM_P2
2022/12/31 00:03:34;;;;;;;3.45;2.10;;;12.30;99.90;;;;;;12580411;28;20052;-86
2022/12/31 00:09:36;;;;;;;4.32;3.10;;;12.30;99.90;;;;;;12591649;28;20045;-87
2022/12/31 00:15:38;;;;;;;2.92;2.15;;;12.30;99.90;;;;;;12567129;28;20052;-87
2022/12/31 00:21:42;;;;;;;3.22;2.40;;;12.10;99.90;;;;;;12585162;28;20079;-86
2022/12/31 00:27:44;;;;;;;3.33;2.20;;;12.10;99.90;;;;;;12598111;28;20058;-87
2022/12/31 00:33:46;;;;;;;4.07;2.10;;;12.10;99.90;;;;;;12571693;28;20119;-87
2022/12/31 00:39:48;;;;;;;3.45;1.73;;;12.10;99.90;;;;;;12600532;28;20063;-87
2022/12/31 00:45:49;;;;;;;3.35;1.65;;;12.10;99.90;;;;;;12587371;28;20047;-88
2022/12/31 00:51:51;;;;;;;1.65;1.33;;;12.00;99.90;;;;;;12592393;28;20040;-88
2022/12/31 00:57:53;;;;;;;1.58;1.08;;;11.90;99.90;;;;;;12583267;28;20059;-88
2022/12/31 01:03:59;;;;;;;1.70;1.33;;;11.90;99.90;;;;;;12595903;28;20044;-88
2022/12/31 01:10:01;;;;;;;1.70;1.30;;;11.80;99.90;;;;;;12591704;28;20049;-88
2022/12/31 01:16:11;;;;;;;2.45;1.67;;;11.80;99.90;;;;;;12587114;28;20059;-88
2022/12/31 01:22:13;;;;;;;2.65;1.77;;;11.80;99.90;;;;;;12584020;28;20136;-88
2022/12/31 01:28:15;;;;;;;2.47;1.75;;;11.80;99.90;;;;;;12589818;28;20210;-88
2022/12/31 01:34:17;;;;;;;3.85;1.80;;;11.80;99.90;;;;;;12594165;28;20060;-87
2022/12/31 01:40:18;;;;;;;3.20;1.90;;;11.80;99.90;;;;;;12583501;28;20059;-88
2022/12/31 01:46:25;;;;;;;2.60;1.63;;;11.80;99.90;;;;;;12569060;28;20052;-88
2022/12/31 01:52:31;;;;;;;3.22;2.03;;;11.70;99.90;;;;;;12582444;28;20043;-88
2022/12/31 01:58:41;;;;;;;2.90;1.80;;;11.60;99.90;;;;;;12573325;28;20048;-87
2022/12/31 02:04:43;;;;;;;2.22;1.27;;;11.60;99.90;;;;;;12583421;28;20139;-88
2022/12/31 02:10:45;;;;;;;1.80;1.00;;;11.60;99.90;;;;;;12589537;28;20222;-88
2022/12/31 02:17:18;;;;;;;1.88;1.00;;;11.60;99.90;;;;;;12569609;28;20393;-88
2022/12/31 02:23:45;;;;;;;2.83;0.82;;;11.60;99.90;;;;;;12567720;28;20528;-89
2022/12/31 02:30:20;;;;;;;1.58;0.90;;;11.60;99.90;;;;;;12596811;28;20113;-88
2022/12/31 02:36:26;;;;;;;1.10;0.75;;;11.60;99.90;;;;;;12459893;28;20053;-88
2022/12/31 02:42:28;;;;;;;1.02;0.70;;;11.60;99.90;;;;;;12496919;28;20098;-87
2022/12/31 02:48:54;;;;;;;0.93;0.63;;;11.60;99.90;;;;;;12488026;28;20049;-88
2022/12/31 02:55:06;;;;;;;1.25;0.65;;;11.60;99.90;;;;;;12499549;28;20186;-89
2022/12/31 03:07:31;;;;;;;1.33;0.60;;;11.60;99.90;;;;;;12494504;28;20048;-88
2022/12/31 03:13:33;;;;;;;2.05;0.70;;;11.70;99.90;;;;;;12484512;28;20107;-88
2022/12/31 03:25:56;;;;;;;1.45;1.05;;;11.60;99.90;;;;;;12486854;28;20502;-87
2022/12/31 03:31:57;;;;;;;0.90;0.70;;;11.70;99.90;;;;;;12506567;28;20049;-88
2022/12/31 03:38:00;;;;;;;0.80;0.50;;;11.80;99.90;;;;;;12579058;28;20056;-87
2022/12/31 03:44:01;;;;;;;2.05;0.40;;;11.90;99.90;;;;;;12586719;28;20557;-87
2022/12/31 03:50:05;;;;;;;1.00;0.82;;;12.00;99.90;;;;;;12591421;28;20090;-87
2022/12/31 03:56:07;;;;;;;2.17;0.80;;;12.00;99.90;;;;;;12576481;28;20056;-88
2022/12/31 04:02:09;;;;;;;2.50;0.40;;;12.00;99.90;;;;;;12576316;28;20048;-88
2022/12/31 04:08:11;;;;;;;4.97;0.40;;;12.20;99.90;;;;;;12567926;28;20132;-88
2022/12/31 04:14:13;;;;;;;2.30;0.40;;;12.30;99.90;;;;;;12564435;28;20048;-88
2022/12/31 04:20:15;;;;;;;1.40;0.40;;;12.40;99.90;;;;;;12572634;28;20471;-88
2022/12/31 04:26:18;;;;;;;0.63;0.22;;;12.30;99.90;;;;;;12601561;28;20052;-89
2022/12/31 04:32:19;;;;;;;0.28;0.20;;;12.10;99.90;;;;;;12576795;28;20044;-88
2022/12/31 04:38:21;;;;;;;0.32;0.30;;;12.10;99.90;;;;;;12574589;28;20412;-88
2022/12/31 04:44:23;;;;;;;2.88;0.30;;;11.90;99.90;;;;;;12569294;28;20203;-87
2022/12/31 04:50:25;;;;;;;0.10;0.10;;;11.70;99.90;;;;;;12572189;28;20040;-88
2022/12/31 04:56:27;;;;;;;0.55;0.20;;;11.60;99.90;;;;;;12575523;28;20056;-88
2022/12/31 05:02:29;;;;;;;0.10;0.10;;;11.60;99.90;;;;;;12592618;28;20048;-89
2022/12/31 05:08:32;;;;;;;0.10;0.10;;;11.50;99.90;;;;;;12577244;28;20045;-88
2022/12/31 05:14:34;;;;;;;0.25;0.20;;;11.40;99.90;;;;;;12593732;28;20131;-88
2022/12/31 05:20:36;;;;;;;0.35;0.20;;;11.50;99.90;;;;;;12574487;28;20500;-88
2022/12/31 05:26:37;;;;;;;0.68;0.20;;;11.40;99.90;;;;;;12592223;28;20105;-88
2022/12/31 05:32:40;;;;;;;2.65;0.30;;;11.40;99.90;;;;;;12572049;28;20053;-88
2022/12/31 05:38:41;;;;;;;0.47;0.30;;;11.40;99.90;;;;;;12590536;28;20097;-88
2022/12/31 05:44:43;;;;;;;1.80;0.55;;;11.50;99.90;;;;;;12590627;28;20037;-88
2022/12/31 05:50:45;;;;;;;0.50;0.30;;;11.50;99.90;;;;;;12590967;28;20048;-89
2022/12/31 05:56:47;;;;;;;0.77;0.30;;;11.50;99.90;;;;;;12591126;28;20052;-88
2022/12/31 06:02:49;;;;;;;1.30;0.70;;;11.60;99.90;;;;;;12592716;28;20083;-88
2022/12/31 06:08:51;;;;;;;1.02;0.68;;;11.60;99.90;;;;;;12576355;28;20182;-88
2022/12/31 06:14:53;;;;;;;1.60;0.90;;;11.60;99.90;;;;;;12554003;28;20044;-88
2022/12/31 06:20:57;;;;;;;1.48;1.10;;;11.80;99.90;;;;;;12592755;28;20040;-88
2022/12/31 06:26:59;;;;;;;5.15;1.50;;;11.90;99.90;;;;;;12589993;28;20123;-88
2022/12/31 06:33:01;;;;;;;3.03;1.30;;;12.20;99.90;;;;;;12590832;28;20055;-88
2022/12/31 06:39:03;;;;;;;2.08;1.08;;;12.40;99.90;;;;;;12642469;28;20096;-89
2022/12/31 06:45:06;;;;;;;1.55;0.80;;;12.60;99.90;;;;;;12637443;28;20063;-88
2022/12/31 06:51:13;;;;;;;1.27;0.50;;;12.70;99.90;;;;;;12649537;28;20032;-89
2022/12/31 06:57:18;;;;;;;1.00;0.40;;;13.10;99.90;;;;;;12644137;28;20052;-89
2022/12/31 07:03:54;;;;;;;1.92;1.10;;;13.20;99.90;;;;;;12633995;28;20044;-88
2022/12/31 07:10:16;;;;;;;3.00;1.27;;;12.70;99.90;;;;;;12629036;28;20129;-89
2022/12/31 07:16:40;;;;;;;2.30;1.67;;;12.40;99.90;;;;;;12598171;28;20048;-88
2022/12/31 07:22:43;;;;;;;2.13;1.57;;;12.20;99.90;;;;;;12608030;28;20045;-89
2022/12/31 07:29:04;;;;;;;3.22;1.50;;;12.00;99.90;;;;;;12623803;28;20095;-88
2022/12/31 07:35:24;;;;;;;2.00;1.38;;;11.80;99.90;;;;;;12602185;28;20041;-88
2022/12/31 07:41:53;;;;;;;2.28;1.20;;;11.80;99.90;;;;;;12602893;28;20049;-88
2022/12/31 07:47:55;;;;;;;1.13;0.93;;;11.70;99.90;;;;;;12599573;28;20044;-88
2022/12/31 07:54:03;;;;;;;1.90;1.10;;;11.70;99.90;;;;;;12602494;28;20048;-88
2022/12/31 08:00:14;;;;;;;1.65;1.20;;;11.60;99.90;;;;;;12599963;28;20060;-88
2022/12/31 08:06:39;;;;;;;2.67;1.67;;;11.60;99.90;;;;;;12592374;28;20147;-88
2022/12/31 08:12:41;;;;;;;;;;;11.70;99.90;;;;;;12577522;28;20036;-88
2022/12/31 08:18:43;;;;;;;2.78;1.50;;;11.90;99.90;;;;;;12596332;28;19920;-88
2022/12/31 08:25:11;;;;;;;2.97;1.35;;;12.00;99.90;;;;;;12590619;28;20133;-88
2022/12/31 08:31:20;;;;;;;5.80;1.40;;;12.50;99.90;;;;;;12578549;28;20158;-88
2022/12/31 08:37:21;;;;;;;2.70;1.45;;;12.70;99.90;;;;;;12572746;28;20091;-87
2022/12/31 08:43:41;;;;;;;2.33;0.60;;;12.90;99.90;;;;;;12567976;28;20502;-89
2022/12/31 08:49:43;;;;;;;5.50;1.00;;;13.10;99.90;;;;;;12577028;28;20040;-87
2022/12/31 08:55:46;;;;;;;2.38;0.85;;;13.60;99.90;;;;;;12575579;28;20048;-87
2022/12/31 09:02:00;;;;;;;2.47;0.63;;;13.80;99.90;;;;;;12585075;28;20052;-87
2022/12/31 09:08:27;;;;;;;2.45;0.68;;;14.30;99.90;;;;;;12592070;28;20334;-87
2022/12/31 09:14:48;;;;;;;1.70;0.43;;;14.70;99.90;;;;;;12590765;28;20049;-88
2022/12/31 09:20:50;;;;;;;2.80;0.60;;;14.80;99.90;;;;;;12589938;28;20094;-87
2022/12/31 09:27:05;;;;;;;2.40;0.50;;;14.90;99.90;;;;;;12574696;28;20102;-86
2022/12/31 09:33:10;;;;;;;;;;;15.10;99.90;;;;;;12569208;28;20493;-88
2022/12/31 09:39:44;;;;;;;2.15;0.45;;;15.30;99.90;;;;;;12586388;28;19920;-87
2022/12/31 09:46:05;;;;;;;2.83;0.60;;;15.40;99.90;;;;;;12561697;28;20051;-88
2022/12/31 09:52:19;;;;;;;3.60;0.65;;;15.40;99.90;;;;;;12569632;28;20709;-88
2022/12/31 09:58:27;;;;;;;3.88;0.60;;;15.60;99.90;;;;;;12569428;28;20052;-89
2022/12/31 10:04:46;;;;;;;2.33;0.57;;;15.60;99.90;;;;;;12569020;28;20044;-87
2022/12/31 10:11:01;;;;;;;2.25;0.30;;;15.70;99.90;;;;;;12580179;28;20045;-87
2022/12/31 10:17:22;;;;;;;2.75;0.65;;;15.80;99.90;;;;;;12575394;28;20487;-87
2022/12/31 10:24:00;;;;;;;2.75;0.52;;;15.80;99.90;;;;;;12585046;28;20044;-86
2022/12/31 10:30:16;;;;;;;6.10;0.52;;;15.90;99.90;;;;;;12558651;28;20116;-86
2022/12/31 10:36:29;;;;;;;2.47;0.65;;;15.80;99.90;;;;;;12565582;28;20516;-87
2022/12/31 10:42:38;;;;;;;;;;;15.90;99.90;;;;;;12587988;28;20055;-87
2022/12/31 10:48:46;;;;;;;2.55;0.40;;;16.00;99.90;;;;;;12587084;28;19920;-87
2022/12/31 10:55:03;;;;;;;1.98;0.45;;;16.00;99.90;;;;;;12565282;28;20041;-87
2022/12/31 11:01:29;;;;;;;4.88;0.63;;;15.80;99.90;;;;;;12579988;28;20420;-87
2022/12/31 11:07:54;;;;;;;3.75;0.90;;;15.70;99.90;;;;;;12565360;28;20443;-87
2022/12/31 11:14:30;;;;;;;2.10;0.70;;;15.70;99.90;;;;;;12576393;28;20052;-87
2022/12/31 11:21:03;;;;;;;2.65;0.77;;;15.80;99.90;;;;;;12580844;28;20094;-88
2022/12/31 11:27:12;;;;;;;1.90;0.40;;;15.70;99.90;;;;;;12581629;28;20145;-86
2022/12/31 11:33:35;;;;;;;1.90;0.60;;;15.50;99.90;;;;;;12584625;28;20063;-87
2022/12/31 11:40:07;;;;;;;3.55;0.90;;;15.00;99.90;;;;;;12574193;28;20063;-87
2022/12/31 11:46:15;;;;;;;5.85;1.42;;;14.90;99.90;;;;;;12564286;28;20045;-87
2022/12/31 11:52:44;;;;;;;2.55;0.60;;;15.20;99.90;;;;;;12566392;28;20450;-88
2022/12/31 11:58:50;;;;;;;3.88;0.82;;;15.30;99.90;;;;;;12569329;28;20052;-88
2022/12/31 12:04:54;;;;;;;4.38;0.75;;;15.50;99.90;;;;;;12586687;28;20051;-89
2022/12/31 12:11:06;;;;;;;2.38;0.70;;;15.70;99.90;;;;;;12575359;28;20049;-88
2022/12/31 12:17:14;;;;;;;4.65;0.82;;;15.80;99.90;;;;;;12590964;28;20053;-87
2022/12/31 12:23:24;;;;;;;3.42;0.63;;;15.90;99.90;;;;;;12589925;28;20056;-88
2022/12/31 12:29:30;;;;;;;5.50;0.70;;;16.00;99.90;;;;;;12585338;28;20040;-88
2022/12/31 12:35:34;;;;;;;4.72;0.70;;;16.00;99.90;;;;;;12589173;28;20053;-87
2022/12/31 12:41:36;;;;;;;10.10;1.10;;;16.20;99.90;;;;;;12586916;28;20606;-88
2022/12/31 12:47:41;;;;;;;2.97;0.90;;;16.20;99.90;;;;;;12575363;28;20055;-87
2022/12/31 12:54:04;;;;;;;4.45;1.00;;;16.30;99.90;;;;;;12582854;28;20089;-87
2022/12/31 13:00:14;;;;;;;2.95;0.75;;;16.20;99.90;;;;;;12582346;28;20127;-87
2022/12/31 13:06:42;;;;;;;2.30;0.45;;;16.20;99.90;;;;;;12569327;28;20580;-87
2022/12/31 13:13:02;;;;;;;5.47;1.00;;;16.30;99.90;;;;;;12561618;28;20036;-87
2022/12/31 13:19:54;;;;;;;4.53;0.98;;;16.20;99.90;;;;;;12587427;28;20072;-88
2022/12/31 13:26:17;;;;;;;3.78;0.60;;;16.20;99.90;;;;;;12567546;28;20043;-89
2022/12/31 13:32:32;;;;;;;6.18;0.77;;;16.40;99.90;;;;;;12583722;28;20041;-87
2022/12/31 13:38:48;;;;;;;4.50;0.80;;;16.40;99.90;;;;;;12577745;28;20568;-87
2022/12/31 13:44:58;;;;;;;4.10;0.70;;;16.40;99.90;;;;;;12570830;28;20040;-88
2022/12/31 13:51:06;;;;;;;3.28;0.70;;;16.20;99.90;;;;;;12567661;28;20511;-87
2022/12/31 13:57:31;;;;;;;2.80;0.80;;;16.30;99.90;;;;;;12564133;28;20045;-88
2022/12/31 14:03:53;;;;;;;2.85;0.80;;;16.10;99.90;;;;;;12578176;28;20040;-89
2022/12/31 14:09:55;;;;;;;3.10;0.90;;;15.90;99.90;;;;;;12589188;28;20512;-87
2022/12/31 14:16:12;;;;;;;1.92;0.68;;;15.70;99.90;;;;;;12570330;28;20049;-87
2022/12/31 14:22:32;;;;;;;2.90;1.15;;;15.50;99.90;;;;;;12568003;28;20049;-87
2022/12/31 14:28:46;;;;;;;2.92;0.73;;;15.50;99.90;;;;;;12566017;28;20052;-87
2022/12/31 14:35:21;;;;;;;5.07;1.00;;;15.50;99.90;;;;;;12525868;28;20094;-89
2022/12/31 14:41:37;;;;;;;;;;;15.50;99.90;;;;;;12528422;28;20508;-88
2022/12/31 14:47:54;;;;;;;5.82;1.05;;;15.50;99.90;;;;;;12538855;28;19920;-88
2022/12/31 14:53:57;;;;;;;3.40;0.90;;;15.40;99.90;;;;;;12539736;28;20043;-88
2022/12/31 15:00:16;;;;;;;3.38;0.77;;;15.20;99.90;;;;;;12540752;28;20048;-88
2022/12/31 15:06:49;;;;;;;2.67;0.77;;;15.20;99.90;;;;;;12535245;28;20041;-87
2022/12/31 15:13:11;;;;;;;3.70;1.10;;;15.00;99.90;;;;;;12531630;28;20037;-87
2022/12/31 15:19:19;;;;;;;2.72;0.90;;;15.00;99.90;;;;;;12551170;28;20052;-88
2022/12/31 15:25:33;;;;;;;5.40;1.00;;;14.80;99.90;;;;;;12533974;28;20044;-88
2022/12/31 15:31:45;;;;;;;3.88;0.80;;;14.80;99.90;;;;;;12560384;28;20385;-87
2022/12/31 15:38:11;;;;;;;3.65;1.10;;;14.80;99.90;;;;;;12563111;28;20058;-87
2022/12/31 15:44:25;;;;;;;2.80;1.10;;;14.80;99.90;;;;;;12592016;28;20412;-87
2022/12/31 15:50:27;;;;;;;3.97;1.10;;;14.70;99.90;;;;;;12576131;28;20050;-87
2022/12/31 15:56:39;;;;;;;3.58;1.00;;;14.70;99.90;;;;;;12580290;28;20056;-88
2022/12/31 16:02:41;;;;;;;4.85;1.30;;;14.70;99.90;;;;;;12595234;28;20123;-87
2022/12/31 16:08:46;;;;;;;5.05;1.20;;;14.70;99.90;;;;;;12584167;28;20515;-88
2022/12/31 16:14:52;;;;;;;6.03;1.42;;;14.70;99.90;;;;;;12601028;28;20040;-88
2022/12/31 16:20:54;;;;;;;4.55;1.27;;;14.70;99.90;;;;;;12577071;28;20541;-87
2022/12/31 16:27:01;;;;;;;5.15;1.23;;;14.70;99.90;;;;;;12563140;28;20045;-87
2022/12/31 16:33:09;;;;;;;5.78;1.10;;;14.70;99.90;;;;;;12575744;28;20048;-88
2022/12/31 16:39:26;;;;;;;5.38;1.23;;;14.80;99.90;;;;;;12564985;28;20049;-87
2022/12/31 16:45:35;;;;;;;5.97;1.30;;;14.90;99.90;;;;;;12574113;28;20053;-88
2022/12/31 16:51:37;;;;;;;4.80;1.27;;;14.80;99.90;;;;;;12576214;28;20048;-88
2022/12/31 16:57:42;;;;;;;6.95;1.30;;;14.80;99.90;;;;;;12582214;28;20544;-88
2022/12/31 17:03:50;;;;;;;5.03;1.15;;;14.80;99.90;;;;;;12564711;28;20048;-88
2022/12/31 17:10:40;;;;;;;3.88;1.10;;;14.70;99.90;;;;;;12568359;28;20051;-88
2022/12/31 17:16:57;;;;;;;6.82;1.10;;;14.70;99.90;;;;;;12563693;28;20093;-88
2022/12/31 17:23:08;;;;;;;4.30;1.50;;;14.60;99.90;;;;;;12589671;28;20047;-87
2022/12/31 17:29:21;;;;;;;2.90;1.00;;;14.60;99.90;;;;;;12573693;28;20055;-88
2022/12/31 17:35:33;;;;;;;5.38;1.42;;;14.70;99.90;;;;;;12590233;28;20473;-88
2022/12/31 17:41:35;;;;;;;4.68;1.17;;;14.70;99.90;;;;;;12567814;28;20496;-87
2022/12/31 17:47:45;;;;;;;6.40;1.15;;;14.60;99.90;;;;;;12560837;28;20202;-87
2022/12/31 17:53:47;;;;;;;2.88;1.10;;;14.80;99.90;;;;;;12578800;28;20036;-86
2022/12/31 17:59:49;;;;;;;3.58;0.93;;;14.70;99.90;;;;;;12575824;28;20471;-88
2022/12/31 18:05:51;;;;;;;3.20;1.20;;;14.90;99.90;;;;;;12561831;28;20045;-87
2022/12/31 18:11:53;;;;;;;2.95;1.10;;;14.90;99.90;;;;;;12569820;28;20045;-87
2022/12/31 18:18:38;;;;;;;4.25;1.08;;;15.00;99.90;;;;;;12567205;28;20523;-87
2022/12/31 18:24:41;;;;;;;2.50;0.80;;;15.00;99.90;;;;;;12577851;28;20040;-87
2022/12/31 18:30:45;;;;;;;2.70;0.88;;;15.00;99.90;;;;;;12569363;28;20059;-86
2022/12/31 18:36:47;;;;;;;8.10;1.20;;;15.20;99.90;;;;;;12574930;28;20041;-87
2022/12/31 18:42:49;;;;;;;3.33;1.27;;;15.10;99.90;;;;;;12586392;28;20186;-87
2022/12/31 18:48:51;;;;;;;3.05;0.98;;;15.10;99.90;;;;;;12581219;28;20533;-87
2022/12/31 18:54:53;;;;;;;6.53;1.48;;;15.10;99.90;;;;;;12573927;28;20040;-86
2022/12/31 19:00:54;;;;;;;3.70;1.08;;;15.10;99.90;;;;;;12579599;28;20401;-86
2022/12/31 19:06:56;;;;;;;4.53;1.35;;;15.10;99.90;;;;;;12582318;28;20059;-86
2022/12/31 19:12:58;;;;;;;3.15;1.30;;;15.20;99.90;;;;;;12584568;28;20054;-87
2022/12/31 19:19:00;;;;;;;4.20;1.08;;;15.20;99.90;;;;;;12566098;28;20105;-88
2022/12/31 19:25:24;;;;;;;3.42;1.40;;;15.20;99.90;;;;;;12577149;28;20139;-87
2022/12/31 19:31:26;;;;;;;5.55;1.20;;;15.10;99.90;;;;;;12564511;28;20056;-87
2022/12/31 19:37:27;;;;;;;4.15;1.20;;;15.20;99.90;;;;;;12570870;28;20052;-86
2022/12/31 19:43:29;;;;;;;5.68;1.08;;;15.20;99.90;;;;;;12564162;28;20500;-87
2022/12/31 19:49:31;;;;;;;5.72;1.38;;;15.00;99.90;;;;;;12567017;28;20519;-87
2022/12/31 19:55:33;;;;;;;7.00;1.75;;;14.90;99.90;;;;;;12566784;28;20106;-87
2022/12/31 20:01:35;;;;;;;3.72;1.35;;;14.80;99.90;;;;;;12585816;28;20075;-87
2022/12/31 20:07:37;;;;;;;9.63;1.40;;;14.70;99.90;;;;;;12581013;28;20097;-87
2022/12/31 20:13:40;;;;;;;6.88;1.30;;;14.80;99.90;;;;;;12575267;28;20516;-87
2022/12/31 20:19:42;;;;;;;5.63;1.15;;;14.80;99.90;;;;;;12594278;28;20060;-89
2022/12/31 20:25:55;;;;;;;5.93;1.30;;;14.80;99.90;;;;;;12590156;28;20036;-88
2022/12/31 20:31:57;;;;;;;6.30;1.50;;;14.70;99.90;;;;;;12586269;28;20045;-86
2022/12/31 20:37:59;;;;;;;5.60;1.67;;;14.70;99.90;;;;;;12578420;28;20550;-86
2022/12/31 20:44:01;;;;;;;4.72;1.23;;;14.80;99.90;;;;;;12572039;28;20462;-87
2022/12/31 20:50:03;;;;;;;7.63;1.70;;;14.80;99.90;;;;;;12581625;28;20051;-87
2022/12/31 20:56:15;;;;;;;6.30;1.52;;;14.70;99.90;;;;;;12593706;28;20049;-87
2022/12/31 21:02:17;;;;;;;6.63;1.58;;;14.70;99.90;;;;;;12586139;28;20056;-87
2022/12/31 21:08:22;;;;;;;6.35;1.50;;;14.80;99.90;;;;;;12606063;28;20048;-88
2022/12/31 21:14:24;;;;;;;6.13;1.52;;;14.90;99.90;;;;;;12583386;28;20176;-87
2022/12/31 21:20:27;;;;;;;13.07;1.70;;;15.00;99.90;;;;;;12580304;28;20040;-87
2022/12/31 21:26:29;;;;;;;9.05;1.70;;;15.20;99.90;;;;;;12589945;28;20493;-86
2022/12/31 21:32:31;;;;;;;10.13;2.45;;;15.20;99.90;;;;;;12565552;28;20866;-86
2022/12/31 21:38:35;;;;;;;8.38;1.83;;;15.20;99.90;;;;;;12582761;28;20488;-86
2022/12/31 21:44:37;;;;;;;7.63;1.60;;;15.30;99.90;;;;;;12562883;28;20097;-87
2022/12/31 21:50:39;;;;;;;7.43;1.98;;;15.30;99.90;;;;;;12566354;28;20101;-87
2022/12/31 21:56:41;;;;;;;6.18;1.40;;;15.30;99.90;;;;;;12586293;28;20056;-86
2022/12/31 22:09:03;;;;;;;5.00;1.58;;;15.30;99.90;;;;;;12576586;28;20044;-86
2022/12/31 22:15:05;;;;;;;7.25;1.83;;;15.20;99.90;;;;;;12569482;28;20123;-86
2022/12/31 22:21:19;;;;;;;8.63;1.75;;;15.30;99.90;;;;;;12572325;28;20135;-87
2022/12/31 22:27:21;;;;;;;6.85;2.10;;;15.30;99.90;;;;;;12585278;28;20057;-87
2022/12/31 22:33:30;;;;;;;11.95;2.10;;;15.30;99.90;;;;;;12580153;28;20053;-87
2022/12/31 22:39:32;;;;;;;8.38;1.80;;;15.30;99.90;;;;;;12581970;28;20101;-86
2022/12/31 22:45:45;;;;;;;6.82;1.85;;;15.30;99.90;;;;;;12568285;28;20036;-87
2022/12/31 22:51:47;;;;;;;6.60;1.70;;;15.20;99.90;;;;;;12565836;28;20048;-87
2022/12/31 22:58:01;;;;;;;14.48;2.17;;;15.20;99.90;;;;;;12582154;28;20064;-86
2022/12/31 23:04:04;;;;;;;10.85;3.83;;;15.10;99.90;;;;;;12576010;28;20525;-88
2022/12/31 23:23:08;;;;;;;16.05;6.30;;;15.30;99.90;;;;;;12582566;28;20124;-88
2022/12/31 23:29:10;;;;;;;21.17;8.30;;;15.20;99.90;;;;;;12581279;28;20053;-87
2022/12/31 23:35:12;;;;;;;15.40;7.68;;;15.20;99.90;;;;;;12568505;28;20048;-88
2022/12/31 23:41:18;;;;;;;18.98;8.02;;;15.30;99.90;;;;;;12558096;28;20086;-88
2022/12/31 23:47:19;;;;;;;17.85;7.07;;;15.30;99.90;;;;;;12573852;28;20072;-88
2022/12/31 23:53:22;;;;;;;26.77;8.23;;;15.20;99.90;;;;;;12582452;28;20070;-88
2022/12/31 23:59:24;;;;;;;18.17;7.13;;;15.20;99.90;;;;;;12585462;28;20054;-88
